Terminal Aerodrome Forecast
Issued by NWS

Home | Current Version | Previous Version | Text Only | Print | Product List | Glossary On
Versions: 1 2 3 4 5 6 7 8 9 10 11 12 13 14 15 16 17 18
000
FTUS41 KBGM 261824 AAA
TAFITH
TAF AMD
KITH 261824Z 2618/2718 31008KT P6SM BKN040
     FM270000 31005KT P6SM SCT060
     FM270500 30003KT P6SM OVC040
     FM270900 30003KT P6SM OVC015
      TEMPO 2710/2714 -SHRASN OVC009
     FM271500 32013G22KT P6SM OVC028=

USA.gov is the U.S. government's official web portal to all federal, state and local government web resources and services.